KPOE/POE METAR and TAF weather

Enter ICAO airport designator
Station Type Date Time Source
KPOE METAR 2020/09/28 08:58 UTC NOAA

KPOE 280858Z AUTO 18005KT 10SM OVC004 24/24 A2982 RMK AO2 LTG DSNT NW SLP096 T02430241 58002


Station Type Date Time Source
KPOE Decoded METAR 2020/09/28 08:58 UTC NOAA

Fort Polk, Polk AAF Ft Polk, LA, United States (KPOE) 31-03N 093-11-38W
Sep 28, 2020 - 04:58 AM EDT / 2020.09.28 0858 UTC
Wind: from the S (180 degrees) at 6 MPH (5 KT):0
Visibility: 10 mile(s):0
Sky conditions: overcast
Weather: Lightning observed
Temperature: 75.7 F (24.3 C)
Dew Point: 75.4 F (24.1 C)
Relative Humidity: 98%
Pressure (altimeter): 29.82 in. Hg (1009 hPa)
Pressure tendency: 0.01 inches (0.2 hPa) lower than three hours ago
ob: KPOE 280858Z AUTO 18005KT 10SM OVC004 24/24 A2982 RMK AO2 LTG DSNT NW SLP096 T02430241 58002
cycle: 9

Station Type Date Time Source
KPOE TAF 2020/09/28 08:15 UTC NOAA

TAF KPOE 280800Z 2808/2914 17006KT 4800 BR OVC004 QNH2978INS
BECMG 2810/2811 18010G20KT 8000 -SHRA OVC007 QNH2980INS
BECMG 2812/2813 23020G30KT 8000 -SHRA OVC007 QNH2982INS
TEMPO 2813/2817 34030G40KT 4800 -TSRA OVC007CB
BECMG 2817/2818 35015G25KT 9999 NSW OVC015 QNH2992INS
BECMG 2820/2821 36010G25KT 9999 FEW030 QNH2993INS
BECMG 2822/2823 36009KT 9999 SKC QNH2994INS TX24/2808Z TN22/2908Z

Example: see airport list